Terminal Aerodrome Forecast
Issued by NWS

Home | Current Version | Previous Version | Text Only | Print | Product List | Glossary On
Versions: 1 2 3 4 5 6 7 8 9 10 11 12 13 14 15 16
000
FTUS45 KBOU 180524
TAFBJC
TAF
KBJC 180524Z 1806/1906 24006KT P6SM FEW200
     FM181700 10007KT P6SM BKN200
     FM190100 24005KT P6SM BKN200=

USA.gov is the U.S. government's official web portal to all federal, state and local government web resources and services.